sensor_id;sensor_type;location;lat;lon;timestamp;pressure;altitude;pressure_sealevel;temperature;humidity
40384;BME280;26097;42.366;23.818;2024-01-30T00:01:24;95910.94;;;-5.79;100.00
40384;BME280;26097;42.366;23.818;2024-01-30T00:04:24;95911.88;;;-5.76;100.00
40384;BME280;26097;42.366;23.818;2024-01-30T00:07:23;95920.41;;;-5.70;100.00
40384;BME280;26097;42.366;23.818;2024-01-30T00:10:22;95916.34;;;-5.61;100.00
40384;BME280;26097;42.366;23.818;2024-01-30T00:13:22;95918.19;;;-5.50;100.00
40384;BME280;26097;42.366;23.818;2024-01-30T00:16:22;95921.75;;;-5.39;100.00
40384;BME280;26097;42.366;23.818;2024-01-30T00:19:23;95918.38;;;-5.38;100.00
40384;BME280;26097;42.366;23.818;2024-01-30T00:22:22;95915.50;;;-5.06;100.00
40384;BME280;26097;42.366;23.818;2024-01-30T00:25:21;95918.88;;;-5.05;100.00
40384;BME280;26097;42.366;23.818;2024-01-30T00:28:21;95905.31;;;-5.06;100.00
40384;BME280;26097;42.366;23.818;2024-01-30T00:31:20;95903.72;;;-4.97;100.00
40384;BME280;26097;42.366;23.818;2024-01-30T00:34:19;95902.78;;;-5.04;100.00
40384;BME280;26097;42.366;23.818;2024-01-30T00:37:19;95910.38;;;-5.07;100.00
40384;BME280;26097;42.366;23.818;2024-01-30T00:40:18;95917.03;;;-5.14;100.00
40384;BME280;26097;42.366;23.818;2024-01-30T00:43:18;95900.69;;;-5.33;100.00
40384;BME280;26097;42.366;23.818;2024-01-30T00:46:17;95911.56;;;-5.42;100.00
40384;BME280;26097;42.366;23.818;2024-01-30T00:49:16;95912.03;;;-5.65;100.00
40384;BME280;26097;42.366;23.818;2024-01-30T00:52:16;95906.91;;;-5.66;100.00
40384;BME280;26097;42.366;23.818;2024-01-30T00:55:15;95908.03;;;-5.50;100.00
40384;BME280;26097;42.366;23.818;2024-01-30T00:58:15;95906.28;;;-4.96;100.00
40384;BME280;26097;42.366;23.818;2024-01-30T01:01:14;95901.91;;;-5.08;100.00
40384;BME280;26097;42.366;23.818;2024-01-30T01:04:14;95891.16;;;-4.87;100.00
40384;BME280;26097;42.366;23.818;2024-01-30T01:07:13;95889.56;;;-4.78;100.00
40384;BME280;26097;42.366;23.818;2024-01-30T01:10:12;95886.34;;;-4.63;100.00
40384;BME280;26097;42.366;23.818;2024-01-30T01:13:12;95894.88;;;-4.61;100.00
40384;BME280;26097;42.366;23.818;2024-01-30T01:16:12;95884.59;;;-4.69;100.00
40384;BME280;26097;42.366;23.818;2024-01-30T01:19:11;95892.31;;;-4.61;100.00
40384;BME280;26097;42.366;23.818;2024-01-30T01:22:11;95894.84;;;-4.64;100.00
40384;BME280;26097;42.366;23.818;2024-01-30T01:25:10;95893.03;;;-4.73;100.00
40384;BME280;26097;42.366;23.818;2024-01-30T01:28:10;95888.75;;;-4.76;100.00
40384;BME280;26097;42.366;23.818;2024-01-30T01:31:09;95890.41;;;-4.78;100.00
40384;BME280;26097;42.366;23.818;2024-01-30T01:34:10;95888.91;;;-4.63;100.00
40384;BME280;26097;42.366;23.818;2024-01-30T01:37:10;95889.72;;;-4.66;100.00
40384;BME280;26097;42.366;23.818;2024-01-30T01:40:09;95890.66;;;-4.59;100.00
40384;BME280;26097;42.366;23.818;2024-01-30T01:43:09;95899.19;;;-4.54;100.00
40384;BME280;26097;42.366;23.818;2024-01-30T01:46:08;95895.63;;;-4.68;100.00
40384;BME280;26097;42.366;23.818;2024-01-30T01:49:08;95906.44;;;-4.85;100.00
40384;BME280;26097;42.366;23.818;2024-01-30T01:52:07;95899.69;;;-4.83;100.00
40384;BME280;26097;42.366;23.818;2024-01-30T01:55:10;95904.44;;;-5.08;100.00
40384;BME280;26097;42.366;23.818;2024-01-30T01:58:09;95904.88;;;-5.34;100.00
40384;BME280;26097;42.366;23.818;2024-01-30T02:01:12;95913.00;;;-5.56;100.00
40384;BME280;26097;42.366;23.818;2024-01-30T02:04:12;95912.69;;;-5.75;100.00
40384;BME280;26097;42.366;23.818;2024-01-30T02:07:12;95914.09;;;-5.94;100.00
40384;BME280;26097;42.366;23.818;2024-01-30T02:10:11;95907.94;;;-6.09;100.00
40384;BME280;26097;42.366;23.818;2024-01-30T02:13:11;95912.81;;;-6.20;100.00
40384;BME280;26097;42.366;23.818;2024-01-30T02:16:10;95912.63;;;-6.29;100.00
40384;BME280;26097;42.366;23.818;2024-01-30T02:19:10;95916.75;;;-6.34;100.00
40384;BME280;26097;42.366;23.818;2024-01-30T02:22:12;95913.59;;;-6.24;100.00
40384;BME280;26097;42.366;23.818;2024-01-30T02:25:12;95915.09;;;-6.32;100.00
40384;BME280;26097;42.366;23.818;2024-01-30T02:28:15;95916.72;;;-6.37;100.00
40384;BME280;26097;42.366;23.818;2024-01-30T02:31:14;95904.63;;;-6.49;100.00
40384;BME280;26097;42.366;23.818;2024-01-30T02:34:17;95905.38;;;-6.55;100.00
40384;BME280;26097;42.366;23.818;2024-01-30T02:37:18;95912.00;;;-6.62;100.00
40384;BME280;26097;42.366;23.818;2024-01-30T02:40:17;95908.41;;;-6.71;100.00
40384;BME280;26097;42.366;23.818;2024-01-30T02:43:17;95908.34;;;-6.75;100.00
40384;BME280;26097;42.366;23.818;2024-01-30T02:46:16;95912.59;;;-6.74;100.00
40384;BME280;26097;42.366;23.818;2024-01-30T02:49:15;95914.19;;;-6.79;100.00
40384;BME280;26097;42.366;23.818;2024-01-30T02:52:15;95909.84;;;-6.84;100.00
40384;BME280;26097;42.366;23.818;2024-01-30T02:55:14;95912.94;;;-6.98;100.00
40384;BME280;26097;42.366;23.818;2024-01-30T02:58:16;95913.69;;;-7.02;100.00
40384;BME280;26097;42.366;23.818;2024-01-30T03:01:16;95907.72;;;-7.06;100.00
40384;BME280;26097;42.366;23.818;2024-01-30T03:04:15;95917.69;;;-7.13;100.00
40384;BME280;26097;42.366;23.818;2024-01-30T03:07:14;95916.69;;;-7.20;100.00
40384;BME280;26097;42.366;23.818;2024-01-30T03:10:14;95899.63;;;-7.27;100.00
40384;BME280;26097;42.366;23.818;2024-01-30T03:13:13;95895.28;;;-7.33;100.00
40384;BME280;26097;42.366;23.818;2024-01-30T03:16:13;95901.97;;;-7.37;100.00
40384;BME280;26097;42.366;23.818;2024-01-30T03:19:12;95904.19;;;-7.49;100.00
40384;BME280;26097;42.366;23.818;2024-01-30T03:22:12;95908.28;;;-7.56;100.00
40384;BME280;26097;42.366;23.818;2024-01-30T03:25:12;95910.78;;;-7.57;100.00
40384;BME280;26097;42.366;23.818;2024-01-30T03:28:11;95907.47;;;-7.53;100.00
40384;BME280;26097;42.366;23.818;2024-01-30T03:31:13;95910.91;;;-7.51;100.00
40384;BME280;26097;42.366;23.818;2024-01-30T03:34:13;95910.69;;;-7.61;100.00
40384;BME280;26097;42.366;23.818;2024-01-30T03:37:12;95920.75;;;-7.64;100.00
40384;BME280;26097;42.366;23.818;2024-01-30T03:40:12;95908.00;;;-7.67;100.00
40384;BME280;26097;42.366;23.818;2024-01-30T03:43:12;95910.63;;;-7.64;100.00
40384;BME280;26097;42.366;23.818;2024-01-30T03:46:12;95914.19;;;-7.55;100.00
40384;BME280;26097;42.366;23.818;2024-01-30T03:49:11;95907.56;;;-7.50;100.00
40384;BME280;26097;42.366;23.818;2024-01-30T03:52:11;95910.00;;;-7.55;100.00
40384;BME280;26097;42.366;23.818;2024-01-30T03:55:10;95909.13;;;-7.55;100.00
40384;BME280;26097;42.366;23.818;2024-01-30T03:58:09;95903.28;;;-7.53;100.00
40384;BME280;26097;42.366;23.818;2024-01-30T04:01:15;95907.66;;;-7.46;100.00
40384;BME280;26097;42.366;23.818;2024-01-30T04:04:15;95902.72;;;-7.41;100.00
40384;BME280;26097;42.366;23.818;2024-01-30T04:07:14;95901.13;;;-7.36;100.00
40384;BME280;26097;42.366;23.818;2024-01-30T04:10:13;95899.78;;;-7.21;100.00
40384;BME280;26097;42.366;23.818;2024-01-30T04:13:13;95906.25;;;-6.96;100.00
40384;BME280;26097;42.366;23.818;2024-01-30T04:16:22;95910.66;;;-6.87;100.00
40384;BME280;26097;42.366;23.818;2024-01-30T04:19:22;95914.06;;;-6.85;100.00
40384;BME280;26097;42.366;23.818;2024-01-30T04:22:21;95908.25;;;-6.81;100.00
40384;BME280;26097;42.366;23.818;2024-01-30T04:25:20;95909.19;;;-6.76;100.00
40384;BME280;26097;42.366;23.818;2024-01-30T04:28:20;95912.50;;;-6.80;100.00
40384;BME280;26097;42.366;23.818;2024-01-30T04:31:19;95917.50;;;-6.83;100.00
40384;BME280;26097;42.366;23.818;2024-01-30T04:34:19;95922.34;;;-6.92;100.00
40384;BME280;26097;42.366;23.818;2024-01-30T04:37:18;95912.94;;;-6.98;100.00
40384;BME280;26097;42.366;23.818;2024-01-30T04:40:18;95907.88;;;-6.98;100.00
40384;BME280;26097;42.366;23.818;2024-01-30T04:43:17;95920.47;;;-7.03;100.00
40384;BME280;26097;42.366;23.818;2024-01-30T04:46:18;95923.34;;;-7.25;100.00
40384;BME280;26097;42.366;23.818;2024-01-30T04:49:17;95918.69;;;-7.43;100.00
40384;BME280;26097;42.366;23.818;2024-01-30T04:52:16;95920.13;;;-7.55;100.00
40384;BME280;26097;42.366;23.818;2024-01-30T04:55:16;95921.75;;;-7.57;100.00
40384;BME280;26097;42.366;23.818;2024-01-30T04:58:15;95924.22;;;-7.60;100.00
40384;BME280;26097;42.366;23.818;2024-01-30T05:01:18;95931.63;;;-7.68;100.00
40384;BME280;26097;42.366;23.818;2024-01-30T05:04:17;95928.13;;;-7.73;100.00
40384;BME280;26097;42.366;23.818;2024-01-30T05:07:17;95915.53;;;-7.70;100.00
40384;BME280;26097;42.366;23.818;2024-01-30T05:10:16;95923.94;;;-7.71;100.00
40384;BME280;26097;42.366;23.818;2024-01-30T05:13:16;95930.63;;;-7.75;100.00
40384;BME280;26097;42.366;23.818;2024-01-30T05:16:15;95929.72;;;-7.77;100.00
40384;BME280;26097;42.366;23.818;2024-01-30T05:19:14;95931.47;;;-7.74;100.00
40384;BME280;26097;42.366;23.818;2024-01-30T05:22:14;95924.66;;;-7.77;100.00
40384;BME280;26097;42.366;23.818;2024-01-30T05:25:14;95928.81;;;-7.80;100.00
40384;BME280;26097;42.366;23.818;2024-01-30T05:28:14;95929.56;;;-7.83;100.00
40384;BME280;26097;42.366;23.818;2024-01-30T05:31:13;95930.53;;;-7.78;100.00
40384;BME280;26097;42.366;23.818;2024-01-30T05:34:13;95934.81;;;-7.75;100.00
40384;BME280;26097;42.366;23.818;2024-01-30T05:37:12;95939.94;;;-7.73;100.00
40384;BME280;26097;42.366;23.818;2024-01-30T05:40:16;95936.50;;;-7.76;100.00
40384;BME280;26097;42.366;23.818;2024-01-30T05:43:15;95938.22;;;-7.75;100.00
40384;BME280;26097;42.366;23.818;2024-01-30T05:46:15;95940.09;;;-7.67;100.00
40384;BME280;26097;42.366;23.818;2024-01-30T05:49:14;95949.19;;;-7.74;100.00
40384;BME280;26097;42.366;23.818;2024-01-30T05:52:14;95945.03;;;-7.72;100.00
40384;BME280;26097;42.366;23.818;2024-01-30T05:55:14;95939.06;;;-7.74;100.00
40384;BME280;26097;42.366;23.818;2024-01-30T05:58:13;95939.00;;;-7.77;100.00
40384;BME280;26097;42.366;23.818;2024-01-30T06:01:13;95947.56;;;-7.72;100.00
40384;BME280;26097;42.366;23.818;2024-01-30T06:04:12;95941.84;;;-7.65;100.00
40384;BME280;26097;42.366;23.818;2024-01-30T06:07:11;95944.59;;;-7.55;100.00
40384;BME280;26097;42.366;23.818;2024-01-30T06:10:11;95951.44;;;-7.51;100.00
40384;BME280;26097;42.366;23.818;2024-01-30T06:13:10;95948.88;;;-7.53;100.00
40384;BME280;26097;42.366;23.818;2024-01-30T06:16:10;95944.72;;;-7.51;100.00
40384;BME280;26097;42.366;23.818;2024-01-30T06:19:10;95945.84;;;-7.38;100.00
40384;BME280;26097;42.366;23.818;2024-01-30T06:22:10;95946.81;;;-7.33;100.00
40384;BME280;26097;42.366;23.818;2024-01-30T06:25:09;95947.16;;;-7.17;100.00
40384;BME280;26097;42.366;23.818;2024-01-30T06:28:09;95948.38;;;-7.01;100.00
40384;BME280;26097;42.366;23.818;2024-01-30T06:31:08;95962.28;;;-6.83;100.00
40384;BME280;26097;42.366;23.818;2024-01-30T06:34:11;95960.84;;;-6.72;100.00
40384;BME280;26097;42.366;23.818;2024-01-30T06:37:11;95966.25;;;-6.56;100.00
40384;BME280;26097;42.366;23.818;2024-01-30T06:40:10;95957.19;;;-6.43;100.00
40384;BME280;26097;42.366;23.818;2024-01-30T06:43:10;95949.91;;;-6.28;100.00
40384;BME280;26097;42.366;23.818;2024-01-30T06:46:10;95958.81;;;-6.03;100.00
40384;BME280;26097;42.366;23.818;2024-01-30T06:49:09;95954.91;;;-5.83;100.00
40384;BME280;26097;42.366;23.818;2024-01-30T06:52:09;95955.28;;;-5.62;100.00
40384;BME280;26097;42.366;23.818;2024-01-30T06:55:09;95956.38;;;-5.46;100.00
40384;BME280;26097;42.366;23.818;2024-01-30T06:58:09;95959.28;;;-5.24;100.00
40384;BME280;26097;42.366;23.818;2024-01-30T07:01:08;95959.66;;;-4.99;100.00
40384;BME280;26097;42.366;23.818;2024-01-30T07:04:09;95970.13;;;-4.79;100.00
40384;BME280;26097;42.366;23.818;2024-01-30T07:07:08;95971.28;;;-4.55;100.00
40384;BME280;26097;42.366;23.818;2024-01-30T07:10:11;95957.06;;;-4.40;100.00
40384;BME280;26097;42.366;23.818;2024-01-30T07:13:11;95960.63;;;-4.26;100.00
40384;BME280;26097;42.366;23.818;2024-01-30T07:16:11;95959.38;;;-3.87;100.00
40384;BME280;26097;42.366;23.818;2024-01-30T07:19:10;95965.63;;;-3.55;100.00
40384;BME280;26097;42.366;23.818;2024-01-30T07:22:09;95959.03;;;-3.28;100.00
40384;BME280;26097;42.366;23.818;2024-01-30T07:25:09;95954.97;;;-3.09;100.00
40384;BME280;26097;42.366;23.818;2024-01-30T07:28:08;95953.31;;;-2.97;100.00
40384;BME280;26097;42.366;23.818;2024-01-30T07:31:11;95952.56;;;-2.84;100.00
40384;BME280;26097;42.366;23.818;2024-01-30T07:34:11;95947.53;;;-2.75;100.00
40384;BME280;26097;42.366;23.818;2024-01-30T07:37:10;95946.72;;;-2.64;100.00
40384;BME280;26097;42.366;23.818;2024-01-30T07:40:12;95940.88;;;-2.48;100.00
40384;BME280;26097;42.366;23.818;2024-01-30T07:43:11;95951.97;;;-2.38;100.00
40384;BME280;26097;42.366;23.818;2024-01-30T07:46:11;95952.88;;;-2.31;100.00
40384;BME280;26097;42.366;23.818;2024-01-30T07:49:10;95953.75;;;-2.20;100.00
40384;BME280;26097;42.366;23.818;2024-01-30T07:52:09;95951.25;;;-2.10;100.00
40384;BME280;26097;42.366;23.818;2024-01-30T07:55:09;95954.66;;;-2.08;100.00
40384;BME280;26097;42.366;23.818;2024-01-30T07:58:08;95947.03;;;-2.01;100.00
40384;BME280;26097;42.366;23.818;2024-01-30T08:01:09;95947.91;;;-1.88;100.00
40384;BME280;26097;42.366;23.818;2024-01-30T08:04:08;95946.22;;;-1.82;100.00
40384;BME280;26097;42.366;23.818;2024-01-30T08:07:08;95952.19;;;-1.77;100.00
40384;BME280;26097;42.366;23.818;2024-01-30T08:10:10;95948.81;;;-1.70;100.00
40384;BME280;26097;42.366;23.818;2024-01-30T08:13:10;95948.81;;;-1.58;100.00
40384;BME280;26097;42.366;23.818;2024-01-30T08:16:09;95950.53;;;-1.50;100.00
40384;BME280;26097;42.366;23.818;2024-01-30T08:19:08;95943.72;;;-1.56;100.00
40384;BME280;26097;42.366;23.818;2024-01-30T08:22:08;95948.84;;;-1.47;100.00
40384;BME280;26097;42.366;23.818;2024-01-30T08:25:08;95947.16;;;-1.34;100.00
40384;BME280;26097;42.366;23.818;2024-01-30T08:28:08;95948.84;;;-1.14;100.00
40384;BME280;26097;42.366;23.818;2024-01-30T08:31:10;95954.81;;;-1.24;100.00
40384;BME280;26097;42.366;23.818;2024-01-30T08:34:10;95953.09;;;-1.22;100.00
40384;BME280;26097;42.366;23.818;2024-01-30T08:37:09;95948.00;;;-1.28;98.85
40384;BME280;26097;42.366;23.818;2024-01-30T08:40:09;95946.28;;;-1.39;100.00
40384;BME280;26097;42.366;23.818;2024-01-30T08:43:08;95945.44;;;-1.30;100.00
40384;BME280;26097;42.366;23.818;2024-01-30T08:46:09;95953.13;;;-1.15;99.56
40384;BME280;26097;42.366;23.818;2024-01-30T08:49:08;95952.25;;;-0.98;98.65
40384;BME280;26097;42.366;23.818;2024-01-30T08:52:08;95951.38;;;-0.91;93.87
40384;BME280;26097;42.366;23.818;2024-01-30T08:55:07;95962.50;;;-0.87;92.73
40384;BME280;26097;42.366;23.818;2024-01-30T08:58:07;95961.66;;;-0.88;92.38
40384;BME280;26097;42.366;23.818;2024-01-30T09:01:07;95951.38;;;-0.86;92.56
40384;BME280;26097;42.366;23.818;2024-01-30T09:04:06;95943.69;;;-0.80;92.56
40384;BME280;26097;42.366;23.818;2024-01-30T09:07:05;95951.34;;;-0.52;93.08
40384;BME280;26097;42.366;23.818;2024-01-30T09:10:07;95948.75;;;-0.49;94.33
40384;BME280;26097;42.366;23.818;2024-01-30T09:13:07;95943.59;;;-0.38;94.05
40384;BME280;26097;42.366;23.818;2024-01-30T09:16:07;95944.47;;;-0.37;92.67
40384;BME280;26097;42.366;23.818;2024-01-30T09:19:06;95934.97;;;-0.13;92.11
40384;BME280;26097;42.366;23.818;2024-01-30T09:22:06;95936.66;;;-0.06;93.37
40384;BME280;26097;42.366;23.818;2024-01-30T09:25:05;95939.19;;;-0.02;91.68
40384;BME280;26097;42.366;23.818;2024-01-30T09:28:05;95933.22;;;-0.02;90.09
40384;BME280;26097;42.366;23.818;2024-01-30T09:31:09;95934.09;;;-0.05;90.81
40384;BME280;26097;42.366;23.818;2024-01-30T09:34:09;95927.13;;;0.24;89.03
40384;BME280;26097;42.366;23.818;2024-01-30T09:37:08;95929.59;;;0.39;89.02
40384;BME280;26097;42.366;23.818;2024-01-30T09:40:08;95931.13;;;0.64;85.73
40384;BME280;26097;42.366;23.818;2024-01-30T09:43:07;95920.75;;;0.81;86.06
40384;BME280;26097;42.366;23.818;2024-01-30T09:46:11;95917.22;;;0.91;84.59
40384;BME280;26097;42.366;23.818;2024-01-30T09:49:12;95909.47;;;0.96;84.48
40384;BME280;26097;42.366;23.818;2024-01-30T09:52:13;95903.47;;;0.98;80.87
40384;BME280;26097;42.366;23.818;2024-01-30T09:55:13;95905.31;;;0.84;85.18
40384;BME280;26097;42.366;23.818;2024-01-30T09:58:12;95906.88;;;1.01;84.53
40384;BME280;26097;42.366;23.818;2024-01-30T10:01:13;95904.41;;;0.88;82.21
40384;BME280;26097;42.366;23.818;2024-01-30T10:04:12;95908.59;;;1.02;82.24
40384;BME280;26097;42.366;23.818;2024-01-30T10:07:12;95895.03;;;0.84;82.63
40384;BME280;26097;42.366;23.818;2024-01-30T10:10:11;95901.75;;;0.97;79.63
40384;BME280;26097;42.366;23.818;2024-01-30T10:13:11;95899.25;;;0.91;76.56
40384;BME280;26097;42.366;23.818;2024-01-30T10:16:13;95887.19;;;0.96;79.08
40384;BME280;26097;42.366;23.818;2024-01-30T10:19:13;95888.06;;;0.95;76.29
40384;BME280;26097;42.366;23.818;2024-01-30T10:22:12;95891.44;;;1.04;72.68
40384;BME280;26097;42.366;23.818;2024-01-30T10:25:12;95880.47;;;0.86;74.07
40384;BME280;26097;42.366;23.818;2024-01-30T10:28:11;95877.78;;;0.95;74.21
40384;BME280;26097;42.366;23.818;2024-01-30T10:31:10;95870.63;;;1.27;76.21
40384;BME280;26097;42.366;23.818;2024-01-30T10:34:10;95868.94;;;1.27;76.02
40384;BME280;26097;42.366;23.818;2024-01-30T10:37:10;95883.59;;;1.18;74.24
40384;BME280;26097;42.366;23.818;2024-01-30T10:40:16;95869.88;;;1.19;74.23
40384;BME280;26097;42.366;23.818;2024-01-30T10:43:18;95863.78;;;1.27;75.08
40384;BME280;26097;42.366;23.818;2024-01-30T10:46:25;95869.75;;;1.31;73.90
40384;BME280;26097;42.366;23.818;2024-01-30T10:49:29;95868.81;;;1.37;72.65
40384;BME280;26097;42.366;23.818;2024-01-30T10:52:29;95863.47;;;1.59;73.45
40384;BME280;26097;42.366;23.818;2024-01-30T10:55:29;95864.97;;;1.72;71.29
40384;BME280;26097;42.366;23.818;2024-01-30T10:58:29;95867.84;;;2.14;70.62
40384;BME280;26097;42.366;23.818;2024-01-30T11:01:28;95859.19;;;2.22;70.56
40384;BME280;26097;42.366;23.818;2024-01-30T11:04:36;95858.63;;;2.59;70.51
40384;BME280;26097;42.366;23.818;2024-01-30T11:07:35;95851.63;;;2.67;69.91
40384;BME280;26097;42.366;23.818;2024-01-30T11:10:44;95871.41;;;2.65;67.74
40384;BME280;26097;42.366;23.818;2024-01-30T11:13:44;95862.97;;;2.55;67.79
40384;BME280;26097;42.366;23.818;2024-01-30T11:16:43;95870.75;;;2.51;68.18
40384;BME280;26097;42.366;23.818;2024-01-30T11:19:43;95853.28;;;2.13;69.34
40384;BME280;26097;42.366;23.818;2024-01-30T11:22:44;95867.38;;;1.86;69.50
40384;BME280;26097;42.366;23.818;2024-01-30T11:25:44;95849.72;;;1.60;71.64
40384;BME280;26097;42.366;23.818;2024-01-30T11:28:52;95846.75;;;1.91;71.51
40384;BME280;26097;42.366;23.818;2024-01-30T11:31:56;95840.81;;;1.85;71.24
40384;BME280;26097;42.366;23.818;2024-01-30T11:34:56;95840.88;;;1.81;72.09
40384;BME280;26097;42.366;23.818;2024-01-30T11:37:57;95840.09;;;1.77;72.82
40384;BME280;26097;42.366;23.818;2024-01-30T11:40:57;95833.19;;;1.79;72.17
40384;BME280;26097;42.366;23.818;2024-01-30T11:43:58;95838.31;;;1.82;68.15
40384;BME280;26097;42.366;23.818;2024-01-30T11:46:57;95839.41;;;1.63;69.39
40384;BME280;26097;42.366;23.818;2024-01-30T11:49:57;95838.72;;;1.47;72.96
40384;BME280;26097;42.366;23.818;2024-01-30T11:52:56;95838.94;;;1.30;73.23
40384;BME280;26097;42.366;23.818;2024-01-30T11:55:56;95818.50;;;1.20;74.36
40384;BME280;26097;42.366;23.818;2024-01-30T11:58:55;95822.09;;;1.02;76.20
40384;BME280;26097;42.366;23.818;2024-01-30T12:01:54;95822.84;;;1.12;76.09
40384;BME280;26097;42.366;23.818;2024-01-30T12:04:54;95807.41;;;1.15;75.94
40384;BME280;26097;42.366;23.818;2024-01-30T12:07:53;95802.41;;;1.75;74.73
40384;BME280;26097;42.366;23.818;2024-01-30T12:10:57;95810.75;;;1.91;71.03
40384;BME280;26097;42.366;23.818;2024-01-30T12:13:57;95803.06;;;1.88;70.39
40384;BME280;26097;42.366;23.818;2024-01-30T12:16:57;95798.44;;;2.11;70.03
40384;BME280;26097;42.366;23.818;2024-01-30T12:20:06;95799.91;;;2.30;69.28
40384;BME280;26097;42.366;23.818;2024-01-30T12:23:06;95798.81;;;1.87;69.27
40384;BME280;26097;42.366;23.818;2024-01-30T12:26:05;95791.50;;;1.59;70.54
40384;BME280;26097;42.366;23.818;2024-01-30T12:29:06;95789.94;;;1.45;71.83
40384;BME280;26097;42.366;23.818;2024-01-30T12:32:05;95780.47;;;1.49;71.54
40384;BME280;26097;42.366;23.818;2024-01-30T12:35:20;95779.94;;;1.88;69.07
40384;BME280;26097;42.366;23.818;2024-01-30T12:38:20;95778.66;;;2.15;67.98
40384;BME280;26097;42.366;23.818;2024-01-30T12:41:20;95782.66;;;2.33;67.33
40384;BME280;26097;42.366;23.818;2024-01-30T12:44:19;95778.84;;;2.04;67.29
40384;BME280;26097;42.366;23.818;2024-01-30T12:47:21;95776.28;;;2.04;68.23
40384;BME280;26097;42.366;23.818;2024-01-30T12:50:20;95778.94;;;1.98;68.55
40384;BME280;26097;42.366;23.818;2024-01-30T12:53:20;95773.31;;;2.29;68.26
40384;BME280;26097;42.366;23.818;2024-01-30T12:56:19;95764.66;;;2.33;67.03
40384;BME280;26097;42.366;23.818;2024-01-30T12:59:19;95771.88;;;2.11;67.51
40384;BME280;26097;42.366;23.818;2024-01-30T13:02:18;95764.94;;;2.16;67.21
40384;BME280;26097;42.366;23.818;2024-01-30T13:05:18;95764.91;;;2.18;67.63
40384;BME280;26097;42.366;23.818;2024-01-30T13:08:17;95764.00;;;2.20;67.12
40384;BME280;26097;42.366;23.818;2024-01-30T13:11:17;95755.22;;;2.32;67.04
40384;BME280;26097;42.366;23.818;2024-01-30T13:14:17;95763.47;;;2.01;66.55
40384;BME280;26097;42.366;23.818;2024-01-30T13:17:16;95755.50;;;1.59;68.50
40384;BME280;26097;42.366;23.818;2024-01-30T13:20:16;95756.84;;;1.84;67.86
40384;BME280;26097;42.366;23.818;2024-01-30T13:23:16;95751.19;;;2.19;67.34
40384;BME280;26097;42.366;23.818;2024-01-30T13:26:15;95749.47;;;2.18;66.04
40384;BME280;26097;42.366;23.818;2024-01-30T13:29:14;95753.34;;;2.43;66.47
40384;BME280;26097;42.366;23.818;2024-01-30T13:32:14;95746.56;;;2.38;65.26
40384;BME280;26097;42.366;23.818;2024-01-30T13:35:13;95746.44;;;2.47;64.53
40384;BME280;26097;42.366;23.818;2024-01-30T13:38:12;95752.56;;;2.38;63.62
40384;BME280;26097;42.366;23.818;2024-01-30T13:41:13;95736.38;;;2.32;65.39
40384;BME280;26097;42.366;23.818;2024-01-30T13:44:12;95749.50;;;2.14;64.77
40384;BME280;26097;42.366;23.818;2024-01-30T13:47:12;95743.25;;;2.31;65.41
40384;BME280;26097;42.366;23.818;2024-01-30T13:50:11;95737.41;;;2.21;64.94
40384;BME280;26097;42.366;23.818;2024-01-30T13:53:14;95757.19;;;2.18;64.96
40384;BME280;26097;42.366;23.818;2024-01-30T13:56:13;95740.13;;;2.12;65.75
40384;BME280;26097;42.366;23.818;2024-01-30T13:59:13;95742.59;;;2.20;65.94
40384;BME280;26097;42.366;23.818;2024-01-30T14:02:12;95752.94;;;2.17;66.08
40384;BME280;26097;42.366;23.818;2024-01-30T14:05:11;95751.25;;;2.12;66.65
40384;BME280;26097;42.366;23.818;2024-01-30T14:08:11;95752.34;;;1.99;67.70
40384;BME280;26097;42.366;23.818;2024-01-30T14:11:10;95750.47;;;2.09;67.62
40384;BME280;26097;42.366;23.818;2024-01-30T14:14:10;95766.25;;;1.87;67.29
40384;BME280;26097;42.366;23.818;2024-01-30T14:17:09;95766.34;;;1.79;67.05
40384;BME280;26097;42.366;23.818;2024-01-30T14:20:09;95760.50;;;1.69;67.40
40384;BME280;26097;42.366;23.818;2024-01-30T14:23:09;95762.25;;;1.64;68.08
40384;BME280;26097;42.366;23.818;2024-01-30T14:26:09;95757.34;;;1.47;68.72
40384;BME280;26097;42.366;23.818;2024-01-30T14:29:08;95750.72;;;1.31;69.81
40384;BME280;26097;42.366;23.818;2024-01-30T14:32:07;95763.75;;;1.15;71.57
40384;BME280;26097;42.366;23.818;2024-01-30T14:35:07;95758.81;;;0.96;73.82
40384;BME280;26097;42.366;23.818;2024-01-30T14:38:07;95756.41;;;0.84;75.09
40384;BME280;26097;42.366;23.818;2024-01-30T14:41:07;95768.41;;;0.82;75.19
40384;BME280;26097;42.366;23.818;2024-01-30T14:44:06;95770.22;;;0.70;76.01
40384;BME280;26097;42.366;23.818;2024-01-30T14:47:07;95758.38;;;0.60;76.78
40384;BME280;26097;42.366;23.818;2024-01-30T14:50:06;95759.28;;;0.53;77.75
40384;BME280;26097;42.366;23.818;2024-01-30T14:53:06;95763.66;;;0.41;78.60
40384;BME280;26097;42.366;23.818;2024-01-30T14:56:06;95755.25;;;0.27;80.26
40384;BME280;26097;42.366;23.818;2024-01-30T14:59:05;95748.50;;;0.13;80.79
40384;BME280;26097;42.366;23.818;2024-01-30T15:02:05;95756.28;;;0.04;82.00
40384;BME280;26097;42.366;23.818;2024-01-30T15:05:05;95753.75;;;-0.02;82.11
40384;BME280;26097;42.366;23.818;2024-01-30T15:08:05;95757.25;;;-0.12;82.97
40384;BME280;26097;42.366;23.818;2024-01-30T15:11:04;95765.94;;;-0.32;85.55
40384;BME280;26097;42.366;23.818;2024-01-30T15:14:04;95753.22;;;-0.52;87.89
40384;BME280;26097;42.366;23.818;2024-01-30T15:17:03;95754.19;;;-0.70;89.57
40384;BME280;26097;42.366;23.818;2024-01-30T15:20:03;95755.97;;;-0.83;90.67
40384;BME280;26097;42.366;23.818;2024-01-30T15:23:03;95761.09;;;-0.91;90.71
40384;BME280;26097;42.366;23.818;2024-01-30T15:26:03;95761.13;;;-1.04;92.26
40384;BME280;26097;42.366;23.818;2024-01-30T15:29:02;95761.19;;;-1.13;93.52
40384;BME280;26097;42.366;23.818;2024-01-30T15:32:02;95762.91;;;-1.23;94.63
40384;BME280;26097;42.366;23.818;2024-01-30T15:35:02;95766.34;;;-1.36;95.59
40384;BME280;26097;42.366;23.818;2024-01-30T15:38:03;95766.38;;;-1.47;95.83